sensor_id;sensor_type;location;lat;lon;timestamp;pressure;altitude;pressure_sealevel;temperature;humidity
33432;BME280;35187;31.882;34.828;2023-06-04T00:01:54;100830;;;24;47
33432;BME280;35187;31.882;34.828;2023-06-04T00:04:24;100830;;;24;47
33432;BME280;35187;31.882;34.828;2023-06-04T00:06:54;100820;;;24;47
33432;BME280;35187;31.882;34.828;2023-06-04T00:09:23;100820;;;24;47
33432;BME280;35187;31.882;34.828;2023-06-04T00:11:52;100820;;;24;47
33432;BME280;35187;31.882;34.828;2023-06-04T00:14:21;100820;;;24;47
33432;BME280;35187;31.882;34.828;2023-06-04T00:16:50;100820;;;24;47
33432;BME280;35187;31.882;34.828;2023-06-04T00:19:19;100820;;;24;47
33432;BME280;35187;31.882;34.828;2023-06-04T00:21:48;100830;;;24;47
33432;BME280;35187;31.882;34.828;2023-06-04T00:24:17;100830;;;24;47
33432;BME280;35187;31.882;34.828;2023-06-04T00:26:46;100830;;;24;47
33432;BME280;35187;31.882;34.828;2023-06-04T00:29:15;100830;;;24;47
33432;BME280;35187;31.882;34.828;2023-06-04T00:31:44;100840;;;24;47
33432;BME280;35187;31.882;34.828;2023-06-04T00:34:13;100840;;;24;47
33432;BME280;35187;31.882;34.828;2023-06-04T00:36:42;100840;;;24;47
33432;BME280;35187;31.882;34.828;2023-06-04T00:39:11;100830;;;24;47
33432;BME280;35187;31.882;34.828;2023-06-04T00:41:40;100830;;;24;47
33432;BME280;35187;31.882;34.828;2023-06-04T00:44:09;100830;;;24;47
33432;BME280;35187;31.882;34.828;2023-06-04T00:46:38;100830;;;24;47
33432;BME280;35187;31.882;34.828;2023-06-04T00:49:07;100830;;;24;47
33432;BME280;35187;31.882;34.828;2023-06-04T00:51:36;100830;;;24;47
33432;BME280;35187;31.882;34.828;2023-06-04T00:54:06;100830;;;24;47
33432;BME280;35187;31.882;34.828;2023-06-04T00:56:36;100820;;;25;47
33432;BME280;35187;31.882;34.828;2023-06-04T00:59:05;100830;;;24;47
33432;BME280;35187;31.882;34.828;2023-06-04T01:01:49;100830;;;25;47
33432;BME280;35187;31.882;34.828;2023-06-04T01:04:25;100830;;;24;46
33432;BME280;35187;31.882;34.828;2023-06-04T01:06:57;100830;;;25;46
33432;BME280;35187;31.882;34.828;2023-06-04T01:09:29;100830;;;25;46
33432;BME280;35187;31.882;34.828;2023-06-04T01:11:58;100820;;;25;46
33432;BME280;35187;31.882;34.828;2023-06-04T01:14:27;100820;;;25;46
33432;BME280;35187;31.882;34.828;2023-06-04T01:16:59;100810;;;25;46
33432;BME280;35187;31.882;34.828;2023-06-04T01:19:42;100810;;;25;46
33432;BME280;35187;31.882;34.828;2023-06-04T01:22:23;100810;;;25;46
33432;BME280;35187;31.882;34.828;2023-06-04T01:24:56;100800;;;25;46
33432;BME280;35187;31.882;34.828;2023-06-04T01:27:28;100800;;;24;46
33432;BME280;35187;31.882;34.828;2023-06-04T01:29:57;100800;;;24;46
33432;BME280;35187;31.882;34.828;2023-06-04T01:32:27;100800;;;24;46
33432;BME280;35187;31.882;34.828;2023-06-04T01:34:57;100790;;;25;46
33432;BME280;35187;31.882;34.828;2023-06-04T01:37:26;100780;;;24;46
33432;BME280;35187;31.882;34.828;2023-06-04T01:39:55;100780;;;24;46
33432;BME280;35187;31.882;34.828;2023-06-04T01:42:24;100780;;;25;46
33432;BME280;35187;31.882;34.828;2023-06-04T01:44:52;100780;;;25;46
33432;BME280;35187;31.882;34.828;2023-06-04T01:47:21;100780;;;25;46
33432;BME280;35187;31.882;34.828;2023-06-04T01:49:50;100780;;;25;46
33432;BME280;35187;31.882;34.828;2023-06-04T01:52:19;100780;;;25;46
33432;BME280;35187;31.882;34.828;2023-06-04T01:54:48;100790;;;25;46
33432;BME280;35187;31.882;34.828;2023-06-04T01:57:17;100790;;;25;46
33432;BME280;35187;31.882;34.828;2023-06-04T01:59:45;100790;;;25;46
33432;BME280;35187;31.882;34.828;2023-06-04T02:02:20;100790;;;24;46
33432;BME280;35187;31.882;34.828;2023-06-04T02:04:49;100780;;;24;46
33432;BME280;35187;31.882;34.828;2023-06-04T02:07:19;100790;;;25;46
33432;BME280;35187;31.882;34.828;2023-06-04T02:09:48;100790;;;24;46
33432;BME280;35187;31.882;34.828;2023-06-04T02:12:17;100790;;;24;46
33432;BME280;35187;31.882;34.828;2023-06-04T02:14:46;100790;;;24;46
33432;BME280;35187;31.882;34.828;2023-06-04T02:17:15;100790;;;24;46
33432;BME280;35187;31.882;34.828;2023-06-04T02:19:44;100790;;;24;46
33432;BME280;35187;31.882;34.828;2023-06-04T02:22:14;100780;;;24;46
33432;BME280;35187;31.882;34.828;2023-06-04T02:24:42;100780;;;24;46
33432;BME280;35187;31.882;34.828;2023-06-04T02:27:12;100770;;;24;46
33432;BME280;35187;31.882;34.828;2023-06-04T02:29:41;100770;;;24;46
33432;BME280;35187;31.882;34.828;2023-06-04T02:32:11;100780;;;24;46
33432;BME280;35187;31.882;34.828;2023-06-04T02:34:40;100780;;;24;46
33432;BME280;35187;31.882;34.828;2023-06-04T02:37:09;100790;;;24;46
33432;BME280;35187;31.882;34.828;2023-06-04T02:39:38;100790;;;24;46
33432;BME280;35187;31.882;34.828;2023-06-04T02:42:07;100790;;;24;46
33432;BME280;35187;31.882;34.828;2023-06-04T02:44:36;100780;;;24;46
33432;BME280;35187;31.882;34.828;2023-06-04T02:47:06;100780;;;24;46
33432;BME280;35187;31.882;34.828;2023-06-04T02:49:35;100790;;;25;46
33432;BME280;35187;31.882;34.828;2023-06-04T02:52:04;100790;;;25;46
33432;BME280;35187;31.882;34.828;2023-06-04T02:54:34;100800;;;24;46
33432;BME280;35187;31.882;34.828;2023-06-04T02:57:03;100810;;;24;46
33432;BME280;35187;31.882;34.828;2023-06-04T02:59:32;100810;;;24;46
33432;BME280;35187;31.882;34.828;2023-06-04T03:02:01;100820;;;24;46
33432;BME280;35187;31.882;34.828;2023-06-04T03:04:29;100820;;;24;46
33432;BME280;35187;31.882;34.828;2023-06-04T03:06:58;100820;;;24;46
33432;BME280;35187;31.882;34.828;2023-06-04T03:09:27;100830;;;24;46
33432;BME280;35187;31.882;34.828;2023-06-04T03:11:59;100830;;;24;46
33432;BME280;35187;31.882;34.828;2023-06-04T03:14:28;100830;;;24;46
33432;BME280;35187;31.882;34.828;2023-06-04T03:16:58;100830;;;24;46
33432;BME280;35187;31.882;34.828;2023-06-04T03:19:27;100830;;;24;46
33432;BME280;35187;31.882;34.828;2023-06-04T03:21:56;100830;;;24;46
33432;BME280;35187;31.882;34.828;2023-06-04T03:24:24;100830;;;24;46
33432;BME280;35187;31.882;34.828;2023-06-04T03:26:53;100830;;;24;46
33432;BME280;35187;31.882;34.828;2023-06-04T03:29:22;100830;;;24;46
33432;BME280;35187;31.882;34.828;2023-06-04T03:31:51;100830;;;24;46
33432;BME280;35187;31.882;34.828;2023-06-04T03:34:19;100830;;;24;46
33432;BME280;35187;31.882;34.828;2023-06-04T03:36:48;100840;;;24;46
33432;BME280;35187;31.882;34.828;2023-06-04T03:39:46;100840;;;24;46
33432;BME280;35187;31.882;34.828;2023-06-04T03:42:15;100840;;;24;47
33432;BME280;35187;31.882;34.828;2023-06-04T03:44:44;100850;;;24;47
33432;BME280;35187;31.882;34.828;2023-06-04T03:47:13;100850;;;23;44
33432;BME280;35187;31.882;34.828;2023-06-04T03:49:42;100840;;;23;49
33432;BME280;35187;31.882;34.828;2023-06-04T03:52:11;100850;;;23;53
33432;BME280;35187;31.882;34.828;2023-06-04T03:54:39;100850;;;23;55
33432;BME280;35187;31.882;34.828;2023-06-04T03:57:09;100850;;;23;56
33432;BME280;35187;31.882;34.828;2023-06-04T03:59:38;100850;;;23;55
33432;BME280;35187;31.882;34.828;2023-06-04T04:02:46;100850;;;23;53
33432;BME280;35187;31.882;34.828;2023-06-04T04:05:34;100860;;;23;52
33432;BME280;35187;31.882;34.828;2023-06-04T04:08:03;100860;;;23;52
33432;BME280;35187;31.882;34.828;2023-06-04T04:10:32;100860;;;24;52
33432;BME280;35187;31.882;34.828;2023-06-04T04:13:11;100870;;;22;51
33432;BME280;35187;31.882;34.828;2023-06-04T04:15:40;100870;;;24;50
33432;BME280;35187;31.882;34.828;2023-06-04T04:18:08;100870;;;24;50
33432;BME280;35187;31.882;34.828;2023-06-04T04:20:37;100870;;;24;50
33432;BME280;35187;31.882;34.828;2023-06-04T04:23:06;100880;;;24;50
33432;BME280;35187;31.882;34.828;2023-06-04T04:25:36;100880;;;24;50
33432;BME280;35187;31.882;34.828;2023-06-04T04:28:05;100870;;;24;50
33432;BME280;35187;31.882;34.828;2023-06-04T04:30:34;100860;;;24;50
33432;BME280;35187;31.882;34.828;2023-06-04T04:33:03;100860;;;24;49
33432;BME280;35187;31.882;34.828;2023-06-04T04:35:32;100860;;;24;49
33432;BME280;35187;31.882;34.828;2023-06-04T04:38:01;100860;;;24;49
33432;BME280;35187;31.882;34.828;2023-06-04T04:40:29;100860;;;24;48
33432;BME280;35187;31.882;34.828;2023-06-04T04:42:58;100860;;;24;48
33432;BME280;35187;31.882;34.828;2023-06-04T04:45:27;100870;;;25;47
33432;BME280;35187;31.882;34.828;2023-06-04T04:47:56;100870;;;24;48
33432;BME280;35187;31.882;34.828;2023-06-04T04:50:25;100870;;;24;47
33432;BME280;35187;31.882;34.828;2023-06-04T04:52:54;100870;;;24;47
33432;BME280;35187;31.882;34.828;2023-06-04T04:55:23;100880;;;24;47
33432;BME280;35187;31.882;34.828;2023-06-04T04:57:52;100880;;;24;47
33432;BME280;35187;31.882;34.828;2023-06-04T05:00:20;100880;;;25;47
33432;BME280;35187;31.882;34.828;2023-06-04T05:02:49;100890;;;24;47
33432;BME280;35187;31.882;34.828;2023-06-04T05:05:18;100890;;;25;47
33432;BME280;35187;31.882;34.828;2023-06-04T05:07:47;100900;;;24;47
33432;BME280;35187;31.882;34.828;2023-06-04T05:10:16;100900;;;25;46
33432;BME280;35187;31.882;34.828;2023-06-04T05:12:51;100900;;;25;46
33432;BME280;35187;31.882;34.828;2023-06-04T05:15:20;100900;;;25;45
33432;BME280;35187;31.882;34.828;2023-06-04T05:17:49;100900;;;25;45
33432;BME280;35187;31.882;34.828;2023-06-04T05:20:17;100900;;;25;45
33432;BME280;35187;31.882;34.828;2023-06-04T05:22:46;100900;;;25;45
33432;BME280;35187;31.882;34.828;2023-06-04T05:25:17;100900;;;24;45
33432;BME280;35187;31.882;34.828;2023-06-04T05:27:46;100900;;;25;44
33432;BME280;35187;31.882;34.828;2023-06-04T05:30:15;100900;;;25;44
33432;BME280;35187;31.882;34.828;2023-06-04T05:32:44;100900;;;25;44
33432;BME280;35187;31.882;34.828;2023-06-04T05:35:12;100890;;;25;44
33432;BME280;35187;31.882;34.828;2023-06-04T05:37:41;100890;;;25;44
33432;BME280;35187;31.882;34.828;2023-06-04T05:40:11;100890;;;25;44
33432;BME280;35187;31.882;34.828;2023-06-04T05:42:41;100890;;;25;44
33432;BME280;35187;31.882;34.828;2023-06-04T05:45:10;100900;;;25;44
33432;BME280;35187;31.882;34.828;2023-06-04T05:47:39;100890;;;25;44
33432;BME280;35187;31.882;34.828;2023-06-04T05:50:08;100890;;;25;44
33432;BME280;35187;31.882;34.828;2023-06-04T05:52:37;100890;;;25;44
33432;BME280;35187;31.882;34.828;2023-06-04T05:55:06;100890;;;25;44
33432;BME280;35187;31.882;34.828;2023-06-04T05:57:35;100900;;;25;44
33432;BME280;35187;31.882;34.828;2023-06-04T06:00:05;100900;;;24;44
33432;BME280;35187;31.882;34.828;2023-06-04T06:02:34;100900;;;25;44
33432;BME280;35187;31.882;34.828;2023-06-04T06:05:03;100900;;;25;44
33432;BME280;35187;31.882;34.828;2023-06-04T06:07:32;100890;;;25;44
33432;BME280;35187;31.882;34.828;2023-06-04T06:10:01;100890;;;25;43
33432;BME280;35187;31.882;34.828;2023-06-04T06:12:31;100880;;;25;43
33432;BME280;35187;31.882;34.828;2023-06-04T06:15:00;100880;;;25;43
33432;BME280;35187;31.882;34.828;2023-06-04T06:17:28;100880;;;25;42
33432;BME280;35187;31.882;34.828;2023-06-04T06:19:57;100880;;;25;43
33432;BME280;35187;31.882;34.828;2023-06-04T06:22:26;100880;;;25;43
33432;BME280;35187;31.882;34.828;2023-06-04T06:24:55;100870;;;25;43
33432;BME280;35187;31.882;34.828;2023-06-04T06:27:24;100870;;;25;43
33432;BME280;35187;31.882;34.828;2023-06-04T06:29:52;100860;;;25;42
33432;BME280;35187;31.882;34.828;2023-06-04T06:32:21;100860;;;25;42
33432;BME280;35187;31.882;34.828;2023-06-04T06:34:50;100860;;;25;42
33432;BME280;35187;31.882;34.828;2023-06-04T06:37:19;100860;;;25;42
33432;BME280;35187;31.882;34.828;2023-06-04T06:39:48;100860;;;25;42
33432;BME280;35187;31.882;34.828;2023-06-04T06:42:16;100860;;;25;41
33432;BME280;35187;31.882;34.828;2023-06-04T06:44:45;100860;;;25;41
33432;BME280;35187;31.882;34.828;2023-06-04T06:47:14;100860;;;25;41
33432;BME280;35187;31.882;34.828;2023-06-04T06:49:43;100860;;;25;41
33432;BME280;35187;31.882;34.828;2023-06-04T06:52:12;100860;;;25;41
33432;BME280;35187;31.882;34.828;2023-06-04T06:54:41;100860;;;25;41
33432;BME280;35187;31.882;34.828;2023-06-04T06:57:09;100850;;;25;41
33432;BME280;35187;31.882;34.828;2023-06-04T06:59:38;100850;;;25;41
33432;BME280;35187;31.882;34.828;2023-06-04T07:02:07;100850;;;25;41
33432;BME280;35187;31.882;34.828;2023-06-04T07:04:36;100850;;;25;42
33432;BME280;35187;31.882;34.828;2023-06-04T07:07:04;100850;;;25;42
33432;BME280;35187;31.882;34.828;2023-06-04T07:09:33;100850;;;25;42
33432;BME280;35187;31.882;34.828;2023-06-04T07:12:02;100850;;;25;41
33432;BME280;35187;31.882;34.828;2023-06-04T07:14:31;100840;;;25;41
33432;BME280;35187;31.882;34.828;2023-06-04T07:17:00;100850;;;25;41
33432;BME280;35187;31.882;34.828;2023-06-04T07:19:29;100840;;;25;40
33432;BME280;35187;31.882;34.828;2023-06-04T07:21:58;100840;;;25;40
33432;BME280;35187;31.882;34.828;2023-06-04T07:24:27;100840;;;25;40
33432;BME280;35187;31.882;34.828;2023-06-04T07:26:56;100850;;;25;40
33432;BME280;35187;31.882;34.828;2023-06-04T07:29:25;100850;;;25;40
33432;BME280;35187;31.882;34.828;2023-06-04T07:31:54;100850;;;25;40
33432;BME280;35187;31.882;34.828;2023-06-04T07:34:22;100850;;;25;40
33432;BME280;35187;31.882;34.828;2023-06-04T07:36:51;100840;;;25;40
33432;BME280;35187;31.882;34.828;2023-06-04T07:39:24;100840;;;24;41
33432;BME280;35187;31.882;34.828;2023-06-04T07:41:53;100850;;;25;40
33432;BME280;35187;31.882;34.828;2023-06-04T07:44:22;100850;;;25;40
33432;BME280;35187;31.882;34.828;2023-06-04T07:46:50;100840;;;25;40
33432;BME280;35187;31.882;34.828;2023-06-04T07:49:20;100840;;;25;40
33432;BME280;35187;31.882;34.828;2023-06-04T07:51:49;100840;;;25;41
33432;BME280;35187;31.882;34.828;2023-06-04T07:54:17;100830;;;25;41
33432;BME280;35187;31.882;34.828;2023-06-04T07:56:46;100840;;;26;41
33432;BME280;35187;31.882;34.828;2023-06-04T07:59:15;100830;;;25;41
33432;BME280;35187;31.882;34.828;2023-06-04T08:01:44;100830;;;26;41
33432;BME280;35187;31.882;34.828;2023-06-04T08:04:13;100830;;;25;41
33432;BME280;35187;31.882;34.828;2023-06-04T08:06:41;100820;;;25;41
33432;BME280;35187;31.882;34.828;2023-06-04T08:09:12;100820;;;25;42
33432;BME280;35187;31.882;34.828;2023-06-04T08:11:42;100820;;;25;42
33432;BME280;35187;31.882;34.828;2023-06-04T08:14:11;100820;;;25;42
33432;BME280;35187;31.882;34.828;2023-06-04T08:16:40;100830;;;25;42
33432;BME280;35187;31.882;34.828;2023-06-04T08:19:09;100830;;;26;42
33432;BME280;35187;31.882;34.828;2023-06-04T08:21:38;100830;;;25;42
33432;BME280;35187;31.882;34.828;2023-06-04T08:24:09;100830;;;25;43
33432;BME280;35187;31.882;34.828;2023-06-04T08:26:38;100830;;;26;43
33432;BME280;35187;31.882;34.828;2023-06-04T08:29:06;100830;;;25;43
33432;BME280;35187;31.882;34.828;2023-06-04T08:31:35;100830;;;25;43
33432;BME280;35187;31.882;34.828;2023-06-04T08:34:04;100830;;;25;43
33432;BME280;35187;31.882;34.828;2023-06-04T08:36:33;100830;;;25;43
33432;BME280;35187;31.882;34.828;2023-06-04T08:39:02;100820;;;25;43
33432;BME280;35187;31.882;34.828;2023-06-04T08:41:37;100830;;;25;43
33432;BME280;35187;31.882;34.828;2023-06-04T08:44:10;100830;;;25;43
33432;BME280;35187;31.882;34.828;2023-06-04T08:46:40;100830;;;25;43
33432;BME280;35187;31.882;34.828;2023-06-04T08:49:09;100830;;;26;43
33432;BME280;35187;31.882;34.828;2023-06-04T08:51:40;100830;;;25;43
33432;BME280;35187;31.882;34.828;2023-06-04T08:54:09;100830;;;25;44
33432;BME280;35187;31.882;34.828;2023-06-04T08:56:38;100830;;;25;44
33432;BME280;35187;31.882;34.828;2023-06-04T08:59:09;100830;;;25;44
33432;BME280;35187;31.882;34.828;2023-06-04T09:01:38;100830;;;25;44
33432;BME280;35187;31.882;34.828;2023-06-04T09:04:07;100820;;;25;43
33432;BME280;35187;31.882;34.828;2023-06-04T09:06:36;100830;;;25;39
33432;BME280;35187;31.882;34.828;2023-06-04T09:09:09;100830;;;25;43
33432;BME280;35187;31.882;34.828;2023-06-04T09:11:44;100840;;;25;46
33432;BME280;35187;31.882;34.828;2023-06-04T09:14:14;100840;;;25;42
33432;BME280;35187;31.882;34.828;2023-06-04T09:16:45;100840;;;25;44
33432;BME280;35187;31.882;34.828;2023-06-04T09:19:15;100820;;;25;47
33432;BME280;35187;31.882;34.828;2023-06-04T09:21:53;100820;;;25;47
33432;BME280;35187;31.882;34.828;2023-06-04T09:24:24;100830;;;24;42
33432;BME280;35187;31.882;34.828;2023-06-04T09:26:53;100820;;;24;45
33432;BME280;35187;31.882;34.828;2023-06-04T09:29:22;100820;;;24;47
33432;BME280;35187;31.882;34.828;2023-06-04T09:31:58;100820;;;24;47
33432;BME280;35187;31.882;34.828;2023-06-04T09:34:28;100810;;;24;42
33432;BME280;35187;31.882;34.828;2023-06-04T09:36:57;100810;;;24;46
33432;BME280;35187;31.882;34.828;2023-06-04T09:39:26;100810;;;24;48
33432;BME280;35187;31.882;34.828;2023-06-04T09:41:59;100800;;;24;47
33432;BME280;35187;31.882;34.828;2023-06-04T09:44:29;100800;;;24;42
33432;BME280;35187;31.882;34.828;2023-06-04T09:47:09;100800;;;24;46
33432;BME280;35187;31.882;34.828;2023-06-04T09:49:41;100800;;;24;48
33432;BME280;35187;31.882;34.828;2023-06-04T09:52:10;100790;;;24;48
33432;BME280;35187;31.882;34.828;2023-06-04T09:54:41;100800;;;24;42
33432;BME280;35187;31.882;34.828;2023-06-04T09:57:15;100800;;;24;46
33432;BME280;35187;31.882;34.828;2023-06-04T09:59:45;100800;;;24;48
33432;BME280;35187;31.882;34.828;2023-06-04T10:02:18;100800;;;24;48
33432;BME280;35187;31.882;34.828;2023-06-04T10:04:49;100800;;;24;43
33432;BME280;35187;31.882;34.828;2023-06-04T10:07:22;100790;;;24;45
33432;BME280;35187;31.882;34.828;2023-06-04T10:09:52;100790;;;24;48
33432;BME280;35187;31.882;34.828;2023-06-04T10:12:26;100790;;;24;48
33432;BME280;35187;31.882;34.828;2023-06-04T10:14:58;100790;;;24;45
33432;BME280;35187;31.882;34.828;2023-06-04T10:17:30;100790;;;24;44
33432;BME280;35187;31.882;34.828;2023-06-04T10:20:02;100790;;;24;48
33432;BME280;35187;31.882;34.828;2023-06-04T10:22:31;100790;;;24;49
33432;BME280;35187;31.882;34.828;2023-06-04T10:25:01;100790;;;24;48
33432;BME280;35187;31.882;34.828;2023-06-04T10:27:31;100780;;;24;44
33432;BME280;35187;31.882;34.828;2023-06-04T10:30:00;100780;;;24;44
33432;BME280;35187;31.882;34.828;2023-06-04T10:32:30;100780;;;24;44
33432;BME280;35187;31.882;34.828;2023-06-04T10:34:59;100780;;;24;44
33432;BME280;35187;31.882;34.828;2023-06-04T10:37:31;100770;;;24;44
33432;BME280;35187;31.882;34.828;2023-06-04T10:40:00;100770;;;24;44
33432;BME280;35187;31.882;34.828;2023-06-04T10:42:38;100770;;;25;44
33432;BME280;35187;31.882;34.828;2023-06-04T10:45:08;100770;;;25;44
33432;BME280;35187;31.882;34.828;2023-06-04T10:47:37;100760;;;25;44
33432;BME280;35187;31.882;34.828;2023-06-04T10:50:09;100760;;;25;44
33432;BME280;35187;31.882;34.828;2023-06-04T10:52:38;100770;;;25;44
33432;BME280;35187;31.882;34.828;2023-06-04T10:55:08;100780;;;25;44
33432;BME280;35187;31.882;34.828;2023-06-04T10:57:37;100780;;;25;44
33432;BME280;35187;31.882;34.828;2023-06-04T11:00:07;100780;;;25;44
33432;BME280;35187;31.882;34.828;2023-06-04T11:02:42;100780;;;25;44
33432;BME280;35187;31.882;34.828;2023-06-04T11:05:17;100780;;;25;44
33432;BME280;35187;31.882;34.828;2023-06-04T11:07:49;100770;;;25;44
33432;BME280;35187;31.882;34.828;2023-06-04T11:10:18;100770;;;25;44
33432;BME280;35187;31.882;34.828;2023-06-04T11:12:53;100770;;;25;44
33432;BME280;35187;31.882;34.828;2023-06-04T11:15:22;100770;;;25;44
33432;BME280;35187;31.882;34.828;2023-06-04T11:17:52;100770;;;25;44
33432;BME280;35187;31.882;34.828;2023-06-04T11:20:22;100770;;;25;44
33432;BME280;35187;31.882;34.828;2023-06-04T11:22:52;100770;;;25;44
33432;BME280;35187;31.882;34.828;2023-06-04T11:25:21;100770;;;25;44
33432;BME280;35187;31.882;34.828;2023-06-04T11:27:52;100770;;;25;44
33432;BME280;35187;31.882;34.828;2023-06-04T11:30:22;100780;;;25;44
33432;BME280;35187;31.882;34.828;2023-06-04T11:33:00;100780;;;25;44
33432;BME280;35187;31.882;34.828;2023-06-04T11:35:29;100780;;;25;44
33432;BME280;35187;31.882;34.828;2023-06-04T11:37:58;100780;;;25;44
33432;BME280;35187;31.882;34.828;2023-06-04T11:40:27;100780;;;25;44
33432;BME280;35187;31.882;34.828;2023-06-04T11:42:56;100780;;;25;44
33432;BME280;35187;31.882;34.828;2023-06-04T11:45:27;100780;;;25;44
33432;BME280;35187;31.882;34.828;2023-06-04T11:47:57;100780;;;25;44
33432;BME280;35187;31.882;34.828;2023-06-04T11:50:27;100790;;;25;44
33432;BME280;35187;31.882;34.828;2023-06-04T11:52:56;100790;;;25;44
33432;BME280;35187;31.882;34.828;2023-06-04T11:55:26;100780;;;25;44
33432;BME280;35187;31.882;34.828;2023-06-04T11:57:55;100780;;;25;44
33432;BME280;35187;31.882;34.828;2023-06-04T12:00:24;100780;;;25;44
33432;BME280;35187;31.882;34.828;2023-06-04T12:02:55;100780;;;25;44
33432;BME280;35187;31.882;34.828;2023-06-04T12:05:29;100770;;;25;44
33432;BME280;35187;31.882;34.828;2023-06-04T12:08:06;100760;;;25;44
33432;BME280;35187;31.882;34.828;2023-06-04T12:10:39;100760;;;25;44
33432;BME280;35187;31.882;34.828;2023-06-04T12:13:08;100750;;;25;44
33432;BME280;35187;31.882;34.828;2023-06-04T12:15:37;100750;;;25;44
33432;BME280;35187;31.882;34.828;2023-06-04T12:18:06;100760;;;25;44
33432;BME280;35187;31.882;34.828;2023-06-04T12:20:36;100750;;;25;44
33432;BME280;35187;31.882;34.828;2023-06-04T12:23:06;100750;;;25;44
33432;BME280;35187;31.882;34.828;2023-06-04T12:25:35;100750;;;25;44
33432;BME280;35187;31.882;34.828;2023-06-04T12:28:04;100740;;;25;44
33432;BME280;35187;31.882;34.828;2023-06-04T12:30:37;100740;;;25;44
33432;BME280;35187;31.882;34.828;2023-06-04T12:33:05;100730;;;25;44
33432;BME280;35187;31.882;34.828;2023-06-04T12:35:35;100730;;;25;44
33432;BME280;35187;31.882;34.828;2023-06-04T12:38:04;100730;;;25;44
33432;BME280;35187;31.882;34.828;2023-06-04T12:40:33;100730;;;25;44
33432;BME280;35187;31.882;34.828;2023-06-04T12:43:02;100730;;;25;40
33432;BME280;35187;31.882;34.828;2023-06-04T12:45:31;100730;;;25;43
33432;BME280;35187;31.882;34.828;2023-06-04T12:48:00;100730;;;24;46
33432;BME280;35187;31.882;34.828;2023-06-04T12:50:29;100740;;;25;45
33432;BME280;35187;31.882;34.828;2023-06-04T12:52:57;100730;;;24;43
33432;BME280;35187;31.882;34.828;2023-06-04T12:55:26;100740;;;24;47
33432;BME280;35187;31.882;34.828;2023-06-04T12:57:55;100740;;;24;49
33432;BME280;35187;31.882;34.828;2023-06-04T13:00:24;100740;;;24;45
33432;BME280;35187;31.882;34.828;2023-06-04T13:02:53;100730;;;24;45
33432;BME280;35187;31.882;34.828;2023-06-04T13:05:22;100730;;;24;49
33432;BME280;35187;31.882;34.828;2023-06-04T13:07:50;100730;;;24;51
33432;BME280;35187;31.882;34.828;2023-06-04T13:10:19;100740;;;24;46
33432;BME280;35187;31.882;34.828;2023-06-04T13:12:48;100740;;;24;47
33432;BME280;35187;31.882;34.828;2023-06-04T13:15:17;100750;;;24;50
33432;BME280;35187;31.882;34.828;2023-06-04T13:17:46;100750;;;24;51
33432;BME280;35187;31.882;34.828;2023-06-04T13:20:15;100740;;;24;45
33432;BME280;35187;31.882;34.828;2023-06-04T13:22:43;100750;;;24;48
33432;BME280;35187;31.882;34.828;2023-06-04T13:25:12;100750;;;24;51
33432;BME280;35187;31.882;34.828;2023-06-04T13:27:41;100740;;;24;53
33432;BME280;35187;31.882;34.828;2023-06-04T13:30:11;100740;;;24;49
33432;BME280;35187;31.882;34.828;2023-06-04T13:32:40;100740;;;24;47
33432;BME280;35187;31.882;34.828;2023-06-04T13:35:09;100740;;;25;51
33432;BME280;35187;31.882;34.828;2023-06-04T13:37:38;100750;;;24;52
33432;BME280;35187;31.882;34.828;2023-06-04T13:40:08;100760;;;24;51
33432;BME280;35187;31.882;34.828;2023-06-04T13:42:37;100760;;;24;45
33432;BME280;35187;31.882;34.828;2023-06-04T13:45:06;100760;;;24;50
33432;BME280;35187;31.882;34.828;2023-06-04T13:47:35;100750;;;24;52
33432;BME280;35187;31.882;34.828;2023-06-04T13:50:04;100760;;;24;53
33432;BME280;35187;31.882;34.828;2023-06-04T13:52:37;100760;;;23;48
33432;BME280;35187;31.882;34.828;2023-06-04T13:55:07;100760;;;24;46
33432;BME280;35187;31.882;34.828;2023-06-04T13:57:36;100760;;;24;46
33432;BME280;35187;31.882;34.828;2023-06-04T14:00:07;100760;;;24;47
33432;BME280;35187;31.882;34.828;2023-06-04T14:02:36;100760;;;24;51
33432;BME280;35187;31.882;34.828;2023-06-04T14:05:05;100760;;;24;52
33432;BME280;35187;31.882;34.828;2023-06-04T14:07:34;100760;;;24;50
33432;BME280;35187;31.882;34.828;2023-06-04T14:10:03;100760;;;24;45
33432;BME280;35187;31.882;34.828;2023-06-04T14:12:32;100760;;;24;49
33432;BME280;35187;31.882;34.828;2023-06-04T14:15:01;100760;;;24;52
33432;BME280;35187;31.882;34.828;2023-06-04T14:17:30;100760;;;24;52
33432;BME280;35187;31.882;34.828;2023-06-04T14:19:58;100760;;;24;48
33432;BME280;35187;31.882;34.828;2023-06-04T14:22:27;100750;;;24;47
33432;BME280;35187;31.882;34.828;2023-06-04T14:24:56;100750;;;24;50
33432;BME280;35187;31.882;34.828;2023-06-04T14:27:25;100740;;;24;52
33432;BME280;35187;31.882;34.828;2023-06-04T14:29:54;100740;;;24;51
33432;BME280;35187;31.882;34.828;2023-06-04T14:32:23;100740;;;24;45
33432;BME280;35187;31.882;34.828;2023-06-04T14:34:52;100740;;;24;49
33432;BME280;35187;31.882;34.828;2023-06-04T14:37:21;100750;;;24;52